createdAt,value
2018-01-27T00:00:44.713Z,0.00
2018-01-27T00:01:44.624Z,0.00
2018-01-27T00:02:44.600Z,0.00
2018-01-27T00:03:44.531Z,0.00
2018-01-27T00:04:44.496Z,0.00
2018-01-27T00:05:44.454Z,0.00
2018-01-27T00:06:44.495Z,0.00
2018-01-27T00:07:44.354Z,0.00
2018-01-27T00:08:44.335Z,0.00
2018-01-27T00:09:44.274Z,0.00
2018-01-27T00:10:44.238Z,0.00
2018-01-27T00:11:44.401Z,0.00
2018-01-27T00:12:44.172Z,0.00
2018-01-27T00:13:44.110Z,0.00
2018-01-27T00:14:44.100Z,0.00
2018-01-27T00:15:44.045Z,0.00
2018-01-27T00:16:43.993Z,0.00
2018-01-27T00:17:43.980Z,0.00
2018-01-27T00:18:43.916Z,0.00
2018-01-27T00:19:43.881Z,0.00
2018-01-27T00:20:43.828Z,0.00
2018-01-27T00:21:43.780Z,0.00
2018-01-27T00:22:43.799Z,0.00
2018-01-27T00:23:43.697Z,0.00
2018-01-27T00:24:43.638Z,0.00
2018-01-27T00:25:43.595Z,0.38
2018-01-27T00:26:43.585Z,0.57
2018-01-27T00:27:43.534Z,0.00
2018-01-27T00:28:43.489Z,0.00
2018-01-27T00:29:43.435Z,0.00
2018-01-27T00:30:43.395Z,0.00
2018-01-27T00:31:43.357Z,0.00
2018-01-27T00:32:43.320Z,0.00
2018-01-27T00:33:43.290Z,0.00
2018-01-27T00:34:43.251Z,0.00
2018-01-27T00:35:43.213Z,0.00
2018-01-27T00:36:43.160Z,0.66
2018-01-27T00:37:43.120Z,0.57
2018-01-27T00:38:43.083Z,0.00
2018-01-27T00:39:43.055Z,0.00
2018-01-27T00:40:43.000Z,0.00
2018-01-27T00:41:42.969Z,0.00
2018-01-27T00:42:42.928Z,0.00
2018-01-27T00:43:42.894Z,0.00
2018-01-27T00:44:42.891Z,0.00
2018-01-27T00:45:42.815Z,0.00
2018-01-27T00:46:42.768Z,0.00
2018-01-27T00:47:42.727Z,0.00
2018-01-27T00:48:42.691Z,0.00
2018-01-27T00:49:42.653Z,0.00
2018-01-27T00:50:42.613Z,0.00
2018-01-27T00:51:42.572Z,0.00
2018-01-27T00:52:42.539Z,0.00
2018-01-27T00:53:42.499Z,0.00
2018-01-27T00:54:42.462Z,0.00
2018-01-27T00:55:42.427Z,0.00
2018-01-27T00:56:42.372Z,0.00
2018-01-27T00:57:42.336Z,0.00
2018-01-27T00:58:42.297Z,1.23
2018-01-27T00:59:42.265Z,0.95
2018-01-27T01:00:42.220Z,0.28
2018-01-27T01:01:42.185Z,0.19
2018-01-27T01:02:42.137Z,0.00
2018-01-27T01:03:42.107Z,2.09
2018-01-27T01:04:42.070Z,1.04
2018-01-27T01:05:42.021Z,0.00
2018-01-27T01:06:41.982Z,0.00
2018-01-27T01:07:41.941Z,0.00
2018-01-27T01:08:41.907Z,0.00
2018-01-27T01:09:41.869Z,0.00
2018-01-27T01:10:41.825Z,0.00
2018-01-27T01:11:41.786Z,0.00
2018-01-27T01:12:41.764Z,0.00
2018-01-27T01:13:41.710Z,0.00
2018-01-27T01:14:41.670Z,0.00
2018-01-27T01:15:41.632Z,0.66
2018-01-27T01:16:41.626Z,0.76
2018-01-27T01:17:41.553Z,2.47
2018-01-27T01:18:41.528Z,0.28
2018-01-27T01:19:41.482Z,0.66
2018-01-27T01:20:41.432Z,0.00
2018-01-27T01:21:41.396Z,2.37
2018-01-27T01:22:41.359Z,3.80
2018-01-27T01:23:41.322Z,0.47
2018-01-27T01:24:41.283Z,0.00
2018-01-27T01:25:41.234Z,0.00
2018-01-27T01:26:41.203Z,0.00
2018-01-27T01:27:41.166Z,1.80
2018-01-27T01:28:41.122Z,1.14
2018-01-27T01:29:41.078Z,0.00
2018-01-27T01:30:41.041Z,0.00
2018-01-27T01:31:41.000Z,0.00
2018-01-27T01:32:40.971Z,0.00
2018-01-27T01:33:40.921Z,0.00
2018-01-27T01:34:40.885Z,0.00
2018-01-27T01:35:40.842Z,0.00
2018-01-27T01:36:40.803Z,0.00
2018-01-27T01:37:40.763Z,0.00
2018-01-27T01:38:40.726Z,0.00
2018-01-27T01:39:40.686Z,0.00
2018-01-27T01:40:40.643Z,0.00
2018-01-27T01:41:40.606Z,0.00
2018-01-27T01:42:40.571Z,0.00
2018-01-27T01:43:40.529Z,0.00
2018-01-27T01:44:40.487Z,0.00
2018-01-27T01:45:40.449Z,0.00
2018-01-27T01:46:40.420Z,0.00
2018-01-27T01:47:40.366Z,0.00
2018-01-27T01:48:40.336Z,0.00
2018-01-27T01:49:40.291Z,0.00
2018-01-27T01:50:40.251Z,0.00
2018-01-27T01:51:40.220Z,0.00
2018-01-27T01:52:40.180Z,0.00
2018-01-27T01:53:40.135Z,0.00
2018-01-27T01:54:40.104Z,0.00
2018-01-27T01:55:40.060Z,0.00
2018-01-27T01:56:40.012Z,0.00
2018-01-27T01:57:39.979Z,0.00
2018-01-27T01:58:39.934Z,0.00
2018-01-27T01:59:39.902Z,0.00
2018-01-27T02:00:39.854Z,0.00
2018-01-27T02:01:39.815Z,0.00
2018-01-27T02:02:39.782Z,0.00
2018-01-27T02:03:39.742Z,0.00
2018-01-27T02:04:39.696Z,0.00
2018-01-27T02:05:39.655Z,0.00
2018-01-27T02:06:39.626Z,0.00
2018-01-27T02:07:39.580Z,0.00
2018-01-27T02:08:39.545Z,0.00
2018-01-27T02:09:39.498Z,0.00
2018-01-27T02:10:39.462Z,0.00
2018-01-27T02:11:39.424Z,0.00
2018-01-27T02:12:39.381Z,0.00
2018-01-27T02:13:39.345Z,0.00
2018-01-27T02:14:39.301Z,0.00
2018-01-27T02:15:39.261Z,0.00
2018-01-27T02:16:39.262Z,0.00
2018-01-27T02:17:39.188Z,0.00
2018-01-27T02:18:39.141Z,0.00
2018-01-27T02:19:39.104Z,0.00
2018-01-27T02:20:39.064Z,0.00
2018-01-27T02:21:39.027Z,0.00
2018-01-27T02:22:38.984Z,0.00
2018-01-27T02:23:38.944Z,0.00
2018-01-27T02:24:38.906Z,0.00
2018-01-27T02:25:38.867Z,0.00
2018-01-27T02:26:38.826Z,0.00
2018-01-27T02:27:38.790Z,0.00
2018-01-27T02:28:38.757Z,0.00
2018-01-27T02:29:38.707Z,0.00
2018-01-27T02:30:38.678Z,0.00
2018-01-27T02:31:38.651Z,0.00
2018-01-27T02:32:38.617Z,0.00
2018-01-27T02:33:38.550Z,0.00
2018-01-27T02:34:38.518Z,0.00
2018-01-27T02:35:38.474Z,0.00
2018-01-27T02:36:38.430Z,0.00
2018-01-27T02:37:38.398Z,0.00
2018-01-27T02:38:38.351Z,0.00
2018-01-27T02:39:38.312Z,0.00
2018-01-27T02:40:38.324Z,0.00
2018-01-27T02:41:38.232Z,0.00
2018-01-27T02:42:38.202Z,0.00
2018-01-27T02:43:38.149Z,0.00
2018-01-27T02:44:38.123Z,0.00
2018-01-27T02:45:38.076Z,0.00
2018-01-27T02:46:38.034Z,0.00
2018-01-27T02:47:37.997Z,0.00
2018-01-27T02:48:37.957Z,0.00
2018-01-27T02:49:37.918Z,0.00
2018-01-27T02:50:37.874Z,0.00
2018-01-27T02:51:37.842Z,0.00
2018-01-27T02:52:37.799Z,0.00
2018-01-27T02:53:37.751Z,0.00
2018-01-27T02:54:37.731Z,0.00
2018-01-27T02:55:37.678Z,0.00
2018-01-27T02:56:37.646Z,0.00
2018-01-27T02:57:37.604Z,0.00
2018-01-27T02:58:37.557Z,0.00
2018-01-27T02:59:37.519Z,0.00
2018-01-27T03:00:37.476Z,0.00
2018-01-27T03:01:37.436Z,0.00
2018-01-27T03:02:37.399Z,0.00
2018-01-27T03:03:37.355Z,0.00
2018-01-27T03:04:37.317Z,0.00
2018-01-27T03:05:37.279Z,0.00
2018-01-27T03:06:37.240Z,0.00
2018-01-27T03:07:37.204Z,0.00
2018-01-27T03:08:37.159Z,0.00
2018-01-27T03:09:37.119Z,0.00
2018-01-27T03:10:37.081Z,0.00
2018-01-27T03:11:37.039Z,0.00
2018-01-27T03:12:37.007Z,0.00
2018-01-27T03:13:36.962Z,0.00
2018-01-27T03:14:36.922Z,0.00
2018-01-27T03:15:36.880Z,0.00
2018-01-27T03:16:36.841Z,0.00
2018-01-27T03:17:36.801Z,0.00
2018-01-27T03:18:36.767Z,0.00
2018-01-27T03:19:36.724Z,0.00
2018-01-27T03:20:36.687Z,0.00
2018-01-27T03:21:36.649Z,0.00
2018-01-27T03:22:36.604Z,0.00
2018-01-27T03:23:36.572Z,0.00
2018-01-27T03:24:36.525Z,0.00
2018-01-27T03:25:36.484Z,0.00
2018-01-27T03:26:36.459Z,0.00
2018-01-27T03:27:36.413Z,0.00
2018-01-27T03:28:36.373Z,0.00
2018-01-27T03:29:36.331Z,0.00
2018-01-27T03:30:36.286Z,0.00
2018-01-27T03:31:36.246Z,0.00
2018-01-27T03:32:36.208Z,0.00
2018-01-27T03:33:36.165Z,0.00
2018-01-27T03:34:36.129Z,0.00
2018-01-27T03:35:36.083Z,0.00
2018-01-27T03:36:36.046Z,0.00
2018-01-27T03:37:36.009Z,0.00
2018-01-27T03:38:35.970Z,0.00
2018-01-27T03:39:35.931Z,0.00
2018-01-27T03:40:35.895Z,0.00
2018-01-27T03:41:35.847Z,0.00
2018-01-27T03:42:35.809Z,0.00
2018-01-27T03:43:35.775Z,0.00
2018-01-27T03:44:35.728Z,0.19
2018-01-27T03:45:35.691Z,0.66
2018-01-27T03:46:35.661Z,2.09
2018-01-27T03:47:35.607Z,2.28
2018-01-27T03:48:35.576Z,0.76
2018-01-27T03:49:35.529Z,0.09
2018-01-27T03:50:35.491Z,1.90
2018-01-27T03:51:35.451Z,2.66
2018-01-27T03:52:35.413Z,3.04
2018-01-27T03:53:35.375Z,4.18
2018-01-27T03:54:35.333Z,4.46
2018-01-27T03:55:35.294Z,4.75
2018-01-27T03:56:35.253Z,6.08
2018-01-27T03:57:35.219Z,6.37
2018-01-27T03:58:35.180Z,4.27
2018-01-27T03:59:35.140Z,4.46
2018-01-27T04:00:35.104Z,7.60
2018-01-27T04:01:35.053Z,4.46
2018-01-27T04:02:35.018Z,7.60
2018-01-27T04:03:34.989Z,7.21
2018-01-27T04:04:34.935Z,7.60
2018-01-27T04:05:34.898Z,6.65
2018-01-27T04:06:34.858Z,5.03
2018-01-27T04:07:34.818Z,5.60
2018-01-27T04:08:34.791Z,7.40
2018-01-27T04:09:34.739Z,8.45
2018-01-27T04:10:34.704Z,7.88
2018-01-27T04:11:34.656Z,6.65
2018-01-27T04:12:34.617Z,8.73
2018-01-27T04:13:34.579Z,5.60
2018-01-27T04:14:34.550Z,5.13
2018-01-27T04:15:34.500Z,5.79
2018-01-27T04:16:34.458Z,4.36
2018-01-27T04:17:34.438Z,1.23
2018-01-27T04:18:34.379Z,0.57
2018-01-27T04:19:34.349Z,0.57
2018-01-27T04:20:34.300Z,0.00
2018-01-27T04:21:34.262Z,0.00
2018-01-27T04:22:34.220Z,0.00
2018-01-27T04:23:34.182Z,0.09
2018-01-27T04:24:34.149Z,0.57
2018-01-27T04:25:34.147Z,0.00
2018-01-27T04:26:34.062Z,0.00
2018-01-27T04:27:34.024Z,0.00
2018-01-27T04:28:33.993Z,0.00
2018-01-27T04:29:33.945Z,0.00
2018-01-27T04:30:33.907Z,0.00
2018-01-27T04:31:33.869Z,0.00
2018-01-27T04:32:33.823Z,0.57
2018-01-27T04:33:33.791Z,0.00
2018-01-27T04:34:33.770Z,0.00
2018-01-27T04:35:33.704Z,0.00
2018-01-27T04:36:33.665Z,0.00
2018-01-27T04:37:33.630Z,0.00
2018-01-27T04:38:33.592Z,0.00
2018-01-27T04:39:33.552Z,0.00
2018-01-27T04:40:33.517Z,0.00
2018-01-27T04:41:33.477Z,0.00
2018-01-27T04:42:33.428Z,0.00
2018-01-27T04:43:33.389Z,0.00
2018-01-27T04:44:33.350Z,0.00
2018-01-27T04:45:33.308Z,0.00
2018-01-27T04:46:33.267Z,0.00
2018-01-27T04:47:33.223Z,0.00
2018-01-27T04:48:33.191Z,0.00
2018-01-27T04:49:33.153Z,0.00
2018-01-27T04:50:33.111Z,0.00
2018-01-27T04:51:33.066Z,0.00
2018-01-27T04:52:33.031Z,0.00
2018-01-27T04:53:32.987Z,0.00
2018-01-27T04:54:32.947Z,0.00
2018-01-27T04:55:32.909Z,0.00
2018-01-27T04:56:32.874Z,0.00
2018-01-27T04:57:32.827Z,0.00
2018-01-27T04:58:32.788Z,0.00
2018-01-27T04:59:32.757Z,0.00
2018-01-27T05:00:32.710Z,0.00
2018-01-27T05:01:32.672Z,0.00
2018-01-27T05:02:32.634Z,0.00
2018-01-27T05:03:32.590Z,0.95
2018-01-27T05:04:32.552Z,3.32
2018-01-27T05:05:32.510Z,0.47
2018-01-27T05:06:32.473Z,0.00
2018-01-27T05:07:32.432Z,0.00
2018-01-27T05:08:32.395Z,0.00
2018-01-27T05:09:32.373Z,0.00
2018-01-27T05:10:32.322Z,0.00
2018-01-27T05:11:32.283Z,0.00
2018-01-27T05:12:32.232Z,0.00
2018-01-27T05:13:32.203Z,0.00
2018-01-27T05:14:32.155Z,0.00
2018-01-27T05:15:32.115Z,1.52
2018-01-27T05:16:32.077Z,4.27
2018-01-27T05:17:32.036Z,3.42
2018-01-27T05:18:31.998Z,4.84
2018-01-27T05:19:31.987Z,5.69
2018-01-27T05:20:31.916Z,4.08
2018-01-27T05:21:31.880Z,0.66
2018-01-27T05:22:31.835Z,0.09
2018-01-27T05:23:31.806Z,1.42
2018-01-27T05:24:31.760Z,4.75
2018-01-27T05:25:31.718Z,2.47
2018-01-27T05:26:31.683Z,0.19
2018-01-27T05:27:31.638Z,0.00
2018-01-27T05:28:31.597Z,1.14
2018-01-27T05:29:31.590Z,2.56
2018-01-27T05:30:31.528Z,2.37
2018-01-27T05:31:31.481Z,2.09
2018-01-27T05:32:31.440Z,2.56
2018-01-27T05:33:31.401Z,3.32
2018-01-27T05:34:31.363Z,5.32
2018-01-27T05:35:31.342Z,5.60
2018-01-27T05:36:31.285Z,6.08
2018-01-27T05:37:31.249Z,7.50
2018-01-27T05:38:31.201Z,7.60
2018-01-27T05:39:31.161Z,4.84
2018-01-27T05:40:31.126Z,4.36
2018-01-27T05:41:31.086Z,4.94
2018-01-27T05:42:31.041Z,5.41
2018-01-27T05:43:31.006Z,7.60
2018-01-27T05:44:30.968Z,5.41
2018-01-27T05:45:30.924Z,4.84
2018-01-27T05:46:30.888Z,2.84
2018-01-27T05:47:30.843Z,2.75
2018-01-27T05:48:30.811Z,4.65
2018-01-27T05:49:30.772Z,5.03
2018-01-27T05:50:30.732Z,7.40
2018-01-27T05:51:30.694Z,7.98
2018-01-27T05:52:30.646Z,7.60
2018-01-27T05:53:30.646Z,7.79
2018-01-27T05:54:30.593Z,8.73
2018-01-27T05:55:30.525Z,9.59
2018-01-27T05:56:30.491Z,9.59
2018-01-27T05:57:30.446Z,7.50
2018-01-27T05:58:30.409Z,7.31
2018-01-27T05:59:30.377Z,6.46
2018-01-27T06:00:30.332Z,6.55
2018-01-27T06:01:30.307Z,6.65
2018-01-27T06:02:30.262Z,6.93
2018-01-27T06:03:30.236Z,6.08
2018-01-27T06:04:30.270Z,6.17
2018-01-27T06:05:30.137Z,6.17
2018-01-27T06:06:30.092Z,6.08
2018-01-27T06:07:30.059Z,6.08
2018-01-27T06:08:30.010Z,6.27
2018-01-27T06:09:29.970Z,6.93
2018-01-27T06:10:29.935Z,9.12
2018-01-27T06:11:29.900Z,9.50
2018-01-27T06:12:29.853Z,8.17
2018-01-27T06:13:29.816Z,8.17
2018-01-27T06:14:29.774Z,9.78
2018-01-27T06:15:29.733Z,9.78
2018-01-27T06:16:29.700Z,9.88
2018-01-27T06:17:29.657Z,9.21
2018-01-27T06:18:29.632Z,9.02
2018-01-27T06:19:29.575Z,8.17
2018-01-27T06:20:29.541Z,8.64
2018-01-27T06:21:29.502Z,9.02
2018-01-27T06:22:29.460Z,9.40
2018-01-27T06:23:29.455Z,9.88
2018-01-27T06:24:29.377Z,9.59
2018-01-27T06:25:29.341Z,9.50
2018-01-27T06:26:29.297Z,10.35
2018-01-27T06:27:29.265Z,10.83
2018-01-27T06:28:29.220Z,10.83
2018-01-27T06:29:29.179Z,9.40
2018-01-27T06:30:29.141Z,8.54
2018-01-27T06:31:29.100Z,9.02
2018-01-27T06:32:29.061Z,9.02
2018-01-27T06:33:29.019Z,9.21
2018-01-27T06:34:28.982Z,8.73
2018-01-27T06:35:28.939Z,8.54
2018-01-27T06:36:28.928Z,8.92
2018-01-27T06:37:28.867Z,10.35
2018-01-27T06:38:28.820Z,11.68
2018-01-27T06:39:28.783Z,10.83
2018-01-27T06:40:28.745Z,11.11
2018-01-27T06:41:28.709Z,11.02
2018-01-27T06:42:28.664Z,11.30
2018-01-27T06:43:28.624Z,13.58
2018-01-27T06:44:28.589Z,12.35
2018-01-27T06:45:28.543Z,13.29
2018-01-27T06:46:28.518Z,12.25
2018-01-27T06:47:28.470Z,12.25
2018-01-27T06:48:28.433Z,11.30
2018-01-27T06:49:28.383Z,11.30
2018-01-27T06:50:28.342Z,9.31
2018-01-27T06:51:28.305Z,9.59
2018-01-27T06:52:28.265Z,11.40
2018-01-27T06:53:28.223Z,9.97
2018-01-27T06:54:28.187Z,10.06
2018-01-27T06:55:28.155Z,9.21
2018-01-27T06:56:28.105Z,8.36
2018-01-27T06:57:28.070Z,8.36
2018-01-27T06:58:28.032Z,9.59
2018-01-27T06:59:27.988Z,10.73
2018-01-27T07:00:27.955Z,9.88
2018-01-27T07:01:27.910Z,10.35
2018-01-27T07:02:27.865Z,10.92
2018-01-27T07:03:27.829Z,12.16
2018-01-27T07:04:27.785Z,11.02
2018-01-27T07:05:27.747Z,12.06
2018-01-27T07:06:27.713Z,11.11
2018-01-27T07:07:27.668Z,10.16
2018-01-27T07:08:27.626Z,11.30
2018-01-27T07:09:27.591Z,9.97
2018-01-27T07:10:27.552Z,10.83
2018-01-27T07:11:27.511Z,12.16
2018-01-27T07:12:27.473Z,11.21
2018-01-27T07:13:27.433Z,11.40
2018-01-27T07:14:27.390Z,13.10
2018-01-27T07:15:27.352Z,13.39
2018-01-27T07:16:27.310Z,14.53
2018-01-27T07:17:27.276Z,14.06
2018-01-27T07:18:27.233Z,13.68
2018-01-27T07:19:27.254Z,15.39
2018-01-27T07:20:27.158Z,15.86
2018-01-27T07:21:27.119Z,16.72
2018-01-27T07:22:27.080Z,15.86
2018-01-27T07:23:27.036Z,16.81
2018-01-27T07:24:26.995Z,16.62
2018-01-27T07:25:27.001Z,18.52
2018-01-27T07:26:26.914Z,19.76
2018-01-27T07:27:26.878Z,20.61
2018-01-27T07:28:26.837Z,20.70
2018-01-27T07:29:26.811Z,23.27
2018-01-27T07:30:26.755Z,23.08
2018-01-27T07:31:26.725Z,22.70
2018-01-27T07:32:26.708Z,21.66
2018-01-27T07:33:26.634Z,24.88
2018-01-27T07:34:26.594Z,23.55
2018-01-27T07:35:26.577Z,24.12
2018-01-27T07:36:26.515Z,22.03
2018-01-27T07:37:26.477Z,23.46
2018-01-27T07:38:26.435Z,26.97
2018-01-27T07:39:26.404Z,26.21
2018-01-27T07:40:26.362Z,25.84
2018-01-27T07:41:26.326Z,26.40
2018-01-27T07:42:26.281Z,26.78
2018-01-27T07:43:26.234Z,28.49
2018-01-27T07:44:26.198Z,29.44
2018-01-27T07:45:26.156Z,30.87
2018-01-27T07:46:26.129Z,30.30
2018-01-27T07:47:26.082Z,30.41
2018-01-27T07:48:26.048Z,31.25
2018-01-27T07:49:26.016Z,32.20
2018-01-27T07:50:25.966Z,33.34
2018-01-27T07:51:25.915Z,31.25
2018-01-27T07:52:25.885Z,30.87
2018-01-27T07:53:25.839Z,29.35
2018-01-27T07:54:25.798Z,29.06
2018-01-27T07:55:25.760Z,29.82
2018-01-27T07:56:25.719Z,29.53
2018-01-27T07:57:25.682Z,32.57
2018-01-27T07:58:25.649Z,31.92
2018-01-27T07:59:25.598Z,32.39
2018-01-27T08:00:25.567Z,32.86
2018-01-27T08:01:25.522Z,34.67
2018-01-27T08:02:25.485Z,33.05
2018-01-27T08:03:25.450Z,33.53
2018-01-27T08:04:25.409Z,34.19
2018-01-27T08:05:25.362Z,36.85
2018-01-27T08:06:25.326Z,38.28
2018-01-27T08:07:25.282Z,36.00
2018-01-27T08:08:25.242Z,37.80
2018-01-27T08:09:25.204Z,36.87
2018-01-27T08:10:25.168Z,38.37
2018-01-27T08:11:25.138Z,42.27
2018-01-27T08:12:25.090Z,39.89
2018-01-27T08:13:25.056Z,40.20
2018-01-27T08:14:25.010Z,41.43
2018-01-27T08:15:24.984Z,42.47
2018-01-27T08:16:24.931Z,42.27
2018-01-27T08:17:24.892Z,42.17
2018-01-27T08:18:24.852Z,43.43
2018-01-27T08:19:24.816Z,44.35
2018-01-27T08:20:24.797Z,44.07
2018-01-27T08:21:24.742Z,47.11
2018-01-27T08:22:24.698Z,45.78
2018-01-27T08:23:24.666Z,45.68
2018-01-27T08:24:24.609Z,44.83
2018-01-27T08:25:24.581Z,45.87
2018-01-27T08:26:24.536Z,44.28
2018-01-27T08:27:24.494Z,45.71
2018-01-27T08:28:24.462Z,47.80
2018-01-27T08:29:24.416Z,47.71
2018-01-27T08:30:24.381Z,47.61
2018-01-27T08:31:24.338Z,48.08
2018-01-27T08:32:24.316Z,49.51
2018-01-27T08:33:24.259Z,49.04
2018-01-27T08:34:24.222Z,49.60
2018-01-27T08:35:24.207Z,51.41
2018-01-27T08:36:24.143Z,52.17
2018-01-27T08:37:24.101Z,51.60
2018-01-27T08:38:24.060Z,56.26
2018-01-27T08:39:24.020Z,51.98
2018-01-27T08:40:23.982Z,51.70
2018-01-27T08:41:23.963Z,58.73
2018-01-27T08:42:24.019Z,56.35
2018-01-27T08:43:23.879Z,56.83
2018-01-27T08:44:23.829Z,59.30
2018-01-27T08:45:23.791Z,62.24
2018-01-27T08:46:23.756Z,61.20
2018-01-27T08:47:23.703Z,61.48
2018-01-27T08:48:23.665Z,61.01
2018-01-27T08:49:23.627Z,61.39
2018-01-27T08:50:23.587Z,62.24
2018-01-27T08:51:23.547Z,63.57
2018-01-27T08:52:23.520Z,65.86
2018-01-27T08:53:23.472Z,69.37
2018-01-27T08:54:23.432Z,69.66
2018-01-27T08:55:23.399Z,72.60
2018-01-27T08:56:23.360Z,71.08
2018-01-27T08:57:23.310Z,72.32
2018-01-27T08:58:23.269Z,73.65
2018-01-27T08:59:23.233Z,72.22
2018-01-27T09:00:23.204Z,71.75
2018-01-27T09:01:23.172Z,71.84
2018-01-27T09:02:23.122Z,73.65
2018-01-27T09:03:23.074Z,75.07
2018-01-27T09:04:23.036Z,72.51
2018-01-27T09:05:23.180Z,72.89
2018-01-27T09:06:22.972Z,75.07
2018-01-27T09:07:22.917Z,73.08
2018-01-27T09:08:22.882Z,72.79
2018-01-27T09:09:22.847Z,73.93
2018-01-27T09:10:22.807Z,76.21
2018-01-27T09:11:22.762Z,75.45
2018-01-27T09:12:22.723Z,73.55
2018-01-27T09:13:22.689Z,73.55
2018-01-27T09:14:22.646Z,72.32
2018-01-27T09:15:22.614Z,72.41
2018-01-27T09:16:22.567Z,72.60
2018-01-27T09:17:22.558Z,72.32
2018-01-27T09:18:22.494Z,72.32
2018-01-27T09:19:22.451Z,70.42
2018-01-27T09:20:22.408Z,73.27
2018-01-27T09:21:22.380Z,72.41
2018-01-27T09:22:22.333Z,71.56
2018-01-27T09:23:22.295Z,76.31
2018-01-27T09:24:22.289Z,75.17
2018-01-27T09:25:22.212Z,75.64
2018-01-27T09:26:22.176Z,74.22
2018-01-27T09:27:22.143Z,75.84
2018-01-27T09:28:22.096Z,74.88
2018-01-27T09:29:22.059Z,75.55
2018-01-27T09:30:22.021Z,73.93
2018-01-27T09:31:21.987Z,72.99
2018-01-27T09:32:21.942Z,74.69
2018-01-27T09:33:21.903Z,74.51
2018-01-27T09:34:21.868Z,73.74
2018-01-27T09:35:21.824Z,75.84
2018-01-27T09:36:21.794Z,76.59
2018-01-27T09:37:21.793Z,76.69
2018-01-27T09:38:21.713Z,74.69
2018-01-27T09:39:21.666Z,73.74
2018-01-27T09:40:21.648Z,75.07
2018-01-27T09:41:21.591Z,74.51
2018-01-27T09:42:21.559Z,75.17
2018-01-27T09:43:21.514Z,74.69
2018-01-27T09:44:21.498Z,78.21
2018-01-27T09:45:21.440Z,76.88
2018-01-27T09:46:21.406Z,76.88
2018-01-27T09:47:21.421Z,76.78
2018-01-27T09:48:21.335Z,77.45
2018-01-27T09:49:21.297Z,79.11
2018-01-27T09:50:21.236Z,81.10
2018-01-27T09:51:21.203Z,77.97
2018-01-27T09:52:21.158Z,80.15
2018-01-27T09:53:21.119Z,79.86
2018-01-27T09:54:21.111Z,78.72
2018-01-27T09:55:21.107Z,79.77
2018-01-27T09:56:21.006Z,79.77
2018-01-27T09:57:20.973Z,80.44
2018-01-27T09:58:20.925Z,81.48
2018-01-27T09:59:20.930Z,81.01
2018-01-27T10:00:20.848Z,80.44
2018-01-27T10:01:20.808Z,81.10
2018-01-27T10:02:20.767Z,80.44
2018-01-27T10:03:20.746Z,81.01
2018-01-27T10:04:20.710Z,81.77
2018-01-27T10:05:20.656Z,80.05
2018-01-27T10:06:20.626Z,81.38
2018-01-27T10:07:20.594Z,83.10
2018-01-27T10:08:20.545Z,81.77
2018-01-27T10:09:20.499Z,83.67
2018-01-27T10:10:20.462Z,83.19
2018-01-27T10:11:20.419Z,82.34
2018-01-27T10:12:20.382Z,84.43
2018-01-27T10:13:20.346Z,85.47
2018-01-27T10:14:20.305Z,83.86
2018-01-27T10:15:20.264Z,86.99
2018-01-27T10:16:20.239Z,88.52
2018-01-27T10:17:20.192Z,87.76
2018-01-27T10:18:20.149Z,89.28
2018-01-27T10:19:20.112Z,88.23
2018-01-27T10:20:20.081Z,90.23
2018-01-27T10:21:20.040Z,87.09
2018-01-27T10:22:19.994Z,90.37
2018-01-27T10:23:19.972Z,88.19
2018-01-27T10:24:19.918Z,88.28
2018-01-27T10:25:19.885Z,86.95
2018-01-27T10:26:19.843Z,88.85
2018-01-27T10:27:19.801Z,88.00
2018-01-27T10:28:19.761Z,87.14
2018-01-27T10:29:19.722Z,87.90
2018-01-27T10:30:19.684Z,87.52
2018-01-27T10:31:19.653Z,86.76
2018-01-27T10:32:19.604Z,87.14
2018-01-27T10:33:19.568Z,86.10
2018-01-27T10:34:19.540Z,86.86
2018-01-27T10:35:19.495Z,87.24
2018-01-27T10:36:19.466Z,86.76
2018-01-27T10:37:19.415Z,90.19
2018-01-27T10:38:19.377Z,88.28
2018-01-27T10:39:19.338Z,89.04
2018-01-27T10:40:19.293Z,88.38
2018-01-27T10:41:19.259Z,87.90
2018-01-27T10:42:19.214Z,88.09
2018-01-27T10:43:19.178Z,87.24
2018-01-27T10:44:19.168Z,86.00
2018-01-27T10:45:19.104Z,87.34
2018-01-27T10:46:19.060Z,84.86
2018-01-27T10:47:19.248Z,86.57
2018-01-27T10:48:19.073Z,89.14
2018-01-27T10:49:18.945Z,87.34
2018-01-27T10:50:18.905Z,85.72
2018-01-27T10:51:18.864Z,86.10
2018-01-27T10:52:18.828Z,84.58
2018-01-27T10:53:18.805Z,83.53
2018-01-27T10:54:18.751Z,83.72
2018-01-27T10:55:18.710Z,83.34
2018-01-27T10:56:18.735Z,83.82
2018-01-27T10:57:18.743Z,82.20
2018-01-27T10:58:18.596Z,81.92
2018-01-27T10:59:18.559Z,82.58
2018-01-27T11:00:18.555Z,81.54
2018-01-27T11:01:18.482Z,81.82
2018-01-27T11:02:18.466Z,80.96
2018-01-27T11:03:18.401Z,81.25
2018-01-27T11:04:18.365Z,79.54
2018-01-27T11:05:18.318Z,80.49
2018-01-27T11:06:18.375Z,79.44
2018-01-27T11:07:18.444Z,80.87
2018-01-27T11:08:18.219Z,80.58
2018-01-27T11:09:18.183Z,80.49
2018-01-27T11:10:18.124Z,79.63
2018-01-27T11:11:18.089Z,80.11
2018-01-27T11:12:18.069Z,78.69
2018-01-27T11:13:18.013Z,79.73
2018-01-27T11:14:17.965Z,80.21
2018-01-27T11:15:17.935Z,77.64
2018-01-27T11:16:17.903Z,77.07
2018-01-27T11:17:17.851Z,77.17
2018-01-27T11:18:17.811Z,77.36
2018-01-27T11:19:17.777Z,78.40
2018-01-27T11:20:17.755Z,77.26
2018-01-27T11:21:17.702Z,78.69
2018-01-27T11:22:17.654Z,76.93
2018-01-27T11:23:17.621Z,79.63
2018-01-27T11:24:17.574Z,80.30
2018-01-27T11:25:17.544Z,82.07
2018-01-27T11:26:17.495Z,81.68
2018-01-27T11:27:17.466Z,86.00
2018-01-27T11:28:17.456Z,84.86
2018-01-27T11:29:17.400Z,85.81
2018-01-27T11:30:17.345Z,87.14
2018-01-27T11:31:17.302Z,86.47
2018-01-27T11:32:17.282Z,85.91
2018-01-27T11:33:17.222Z,85.81
2018-01-27T11:34:17.186Z,87.05
2018-01-27T11:35:17.149Z,87.43
2018-01-27T11:36:17.112Z,85.24
2018-01-27T11:37:17.077Z,84.77
2018-01-27T11:38:17.020Z,84.29
2018-01-27T11:39:16.993Z,85.24
2018-01-27T11:40:16.997Z,84.48
2018-01-27T11:41:17.001Z,86.00
2018-01-27T11:42:17.041Z,84.29
2018-01-27T11:43:16.909Z,85.43
2018-01-27T11:44:16.848Z,85.05
2018-01-27T11:45:16.807Z,85.91
2018-01-27T11:46:16.827Z,84.95
2018-01-27T11:47:16.738Z,86.38
2018-01-27T11:48:16.693Z,86.29
2018-01-27T11:49:16.665Z,84.77
2018-01-27T11:50:16.637Z,85.43
2018-01-27T11:51:16.584Z,84.48
2018-01-27T11:52:16.536Z,85.62
2018-01-27T11:53:16.504Z,85.34
2018-01-27T11:54:16.457Z,85.91
2018-01-27T11:55:16.395Z,85.72
2018-01-27T11:56:16.408Z,85.43
2018-01-27T11:57:16.321Z,85.91
2018-01-27T11:58:16.309Z,85.76
2018-01-27T11:59:16.251Z,87.43
2018-01-27T12:00:16.236Z,86.10
2018-01-27T12:01:16.197Z,85.38
2018-01-27T12:02:16.147Z,86.80
2018-01-27T12:03:16.117Z,85.00
2018-01-27T12:04:16.088Z,85.00
2018-01-27T12:05:16.032Z,85.38
2018-01-27T12:06:15.986Z,84.91
2018-01-27T12:07:15.960Z,84.91
2018-01-27T12:08:15.915Z,87.47
2018-01-27T12:09:15.878Z,86.80
2018-01-27T12:10:15.840Z,86.71
2018-01-27T12:11:15.816Z,86.24
2018-01-27T12:12:15.771Z,86.05
2018-01-27T12:13:15.724Z,86.14
2018-01-27T12:14:15.681Z,86.33
2018-01-27T12:15:15.640Z,85.00
2018-01-27T12:16:15.594Z,84.62
2018-01-27T12:17:15.560Z,84.52
2018-01-27T12:18:15.518Z,83.58
2018-01-27T12:19:15.492Z,86.61
2018-01-27T12:20:15.455Z,86.43
2018-01-27T12:21:15.412Z,85.38
2018-01-27T12:22:15.378Z,84.62
2018-01-27T12:23:15.334Z,84.72
2018-01-27T12:24:15.297Z,84.81
2018-01-27T12:25:15.261Z,85.66
2018-01-27T12:26:15.220Z,84.72
2018-01-27T12:27:15.182Z,84.24
2018-01-27T12:28:15.153Z,84.62
2018-01-27T12:29:15.091Z,87.95
2018-01-27T12:30:15.051Z,86.99
2018-01-27T12:31:15.022Z,85.10
2018-01-27T12:32:14.977Z,84.24
2018-01-27T12:33:14.938Z,84.62
2018-01-27T12:34:14.884Z,85.76
2018-01-27T12:35:14.832Z,85.57
2018-01-27T12:36:14.800Z,86.05
2018-01-27T12:37:14.785Z,86.43
2018-01-27T12:38:14.779Z,86.61
2018-01-27T12:39:14.709Z,88.04
2018-01-27T12:40:14.675Z,86.61
2018-01-27T12:41:14.648Z,86.90
2018-01-27T12:42:14.598Z,88.33
2018-01-27T12:43:14.559Z,86.99
2018-01-27T12:44:14.516Z,85.95
2018-01-27T12:45:14.480Z,87.76
2018-01-27T12:46:14.436Z,86.14
2018-01-27T12:47:14.409Z,89.18
2018-01-27T12:48:14.359Z,88.33
2018-01-27T12:49:14.318Z,86.33
2018-01-27T12:50:14.289Z,87.09
2018-01-27T12:51:14.252Z,86.52
2018-01-27T12:52:14.210Z,88.80
2018-01-27T12:53:14.163Z,89.18
2018-01-27T12:54:14.133Z,88.04
2018-01-27T12:55:14.084Z,87.28
2018-01-27T12:56:14.069Z,87.85
2018-01-27T12:57:14.007Z,87.85
2018-01-27T12:58:13.965Z,88.71
2018-01-27T12:59:13.939Z,87.19
2018-01-27T13:00:13.901Z,85.86
2018-01-27T13:01:13.862Z,87.09
2018-01-27T13:02:13.837Z,89.00
2018-01-27T13:03:13.779Z,87.38
2018-01-27T13:04:13.743Z,87.85
2018-01-27T13:05:13.708Z,88.04